Time;durP1;ratioP1;P1;durP2;ratioP2;P2;SDS_P1;SDS_P2;PMS_P1;PMS_P2;Temp;Humidity;BMP_temperature;BMP_pressure;BME280_temperature;BME280_humidity;BME280_pressure;Samples;Min_cycle;Max_cycle;Signal;HPM_P1;HPM_P2
2022/01/28 00:05:00;;;;;;;4.55;3.55;;;;;;;;;;4986512;28;20792;-56
2022/01/28 00:07:25;;;;;;;2.55;2.35;;;;;;;;;;5001360;28;20179;-57
2022/01/28 00:09:50;;;;;;;2.85;2.65;;;;;;;;;;5005849;28;20658;-56
2022/01/28 00:12:15;;;;;;;2.92;2.72;;;;;;;;;;4996956;28;20284;-57
2022/01/28 00:15:03;;;;;;;3.25;2.92;;;;;;;;;;4998710;28;20178;-57
2022/01/28 00:38:54;;;;;;;3.03;2.83;;;;;;;;;;4999913;28;20170;-57
2022/01/28 00:41:19;;;;;;;3.67;3.45;;;;;;;;;;4993432;28;20184;-57
2022/01/28 00:43:45;;;;;;;3.40;3.20;;;;;;;;;;4996191;28;21196;-57
2022/01/28 00:46:11;;;;;;;3.45;3.15;;;;;;;;;;4997803;28;20191;-57
2022/01/28 00:48:36;;;;;;;5.10;2.92;;;;;;;;;;4999025;28;20684;-57
2022/01/28 00:51:01;;;;;;;2.35;2.15;;;;;;;;;;5003960;28;20198;-56
2022/01/28 00:53:27;;;;;;;2.88;2.67;;;;;;;;;;4991736;28;20707;-57
2022/01/28 00:55:54;;;;;;;4.53;2.75;;;;;;;;;;5003022;28;20187;-57
2022/01/28 00:58:19;;;;;;;3.67;2.50;;;;;;;;;;4993926;28;20187;-57
2022/01/28 01:00:44;;;;;;;3.70;2.50;;;;;;;;;;5000887;28;20183;-57
2022/01/28 01:03:10;;;;;;;3.80;3.47;;;;;;;;;;5000624;28;20641;-57
2022/01/28 01:05:35;;;;;;;3.45;3.15;;;;;;;;;;4994138;28;20256;-57
2022/01/28 01:08:01;;;;;;;2.90;2.60;;;;;;;;;;4997959;28;20206;-56
2022/01/28 01:10:27;;;;;;;2.85;2.65;;;;;;;;;;4999919;28;20183;-56
2022/01/28 01:12:52;;;;;;;2.50;2.35;;;;;;;;;;4996095;28;20211;-57
2022/01/28 01:15:21;;;;;;;3.40;3.20;;;;;;;;;;4996510;28;20211;-56
2022/01/28 01:17:58;;;;;;;2.55;2.40;;;;;;;;;;4997530;28;20191;-56
2022/01/28 01:23:11;;;;;;;2.72;2.53;;;;;;;;;;4999092;28;20275;-57
2022/01/28 01:25:51;;;;;;;2.22;2.13;;;;;;;;;;4997687;28;20186;-56
2022/01/28 01:28:19;;;;;;;3.25;2.95;;;;;;;;;;4997184;28;20226;-56
2022/01/28 01:30:45;;;;;;;2.88;2.67;;;;;;;;;;4998579;28;20191;-56
2022/01/28 01:33:11;;;;;;;2.78;2.40;;;;;;;;;;4998767;28;20176;-57
2022/01/28 01:35:36;;;;;;;3.47;3.17;;;;;;;;;;4999266;28;20678;-56
2022/01/28 01:38:02;;;;;;;3.35;2.95;;;;;;;;;;4996617;28;20578;-56
2022/01/28 01:40:34;;;;;;;2.75;2.65;;;;;;;;;;5002502;28;20598;-56
2022/01/28 01:43:14;;;;;;;4.82;3.15;;;;;;;;;;4992858;28;20175;-56
2022/01/28 01:53:45;;;;;;;2.75;2.17;;;;;;;;;;5001663;28;20288;-57
2022/01/28 01:56:11;;;;;;;2.50;2.20;;;;;;;;;;5006918;28;20656;-57
2022/01/28 01:58:38;;;;;;;1.85;1.75;;;;;;;;;;4998760;28;20274;-56
2022/01/28 02:01:03;;;;;;;2.20;2.08;;;;;;;;;;5003604;28;20180;-56
2022/01/28 02:03:28;;;;;;;2.28;2.17;;;;;;;;;;4999149;28;21257;-57
2022/01/28 02:06:01;;;;;;;2.50;2.30;;;;;;;;;;5000123;28;20211;-57
2022/01/28 02:08:27;;;;;;;3.88;2.67;;;;;;;;;;4998306;28;20302;-57
2022/01/28 02:10:57;;;;;;;2.50;2.30;;;;;;;;;;4981548;28;20861;-57
2022/01/28 02:13:22;;;;;;;2.78;2.58;;;;;;;;;;5002632;28;20181;-56
2022/01/28 02:15:47;;;;;;;2.67;2.40;;;;;;;;;;5003083;28;20183;-56
2022/01/28 02:18:12;;;;;;;3.60;2.63;;;;;;;;;;4997562;28;20210;-57
2022/01/28 02:20:42;;;;;;;5.03;3.40;;;;;;;;;;4996219;28;20663;-57
2022/01/28 02:23:07;;;;;;;32.70;14.07;;;;;;;;;;5001726;28;20695;-57
2022/01/28 02:25:33;;;;;;;5.72;4.35;;;;;;;;;;4998277;28;20283;-57
2022/01/28 02:28:00;;;;;;;11.27;6.53;;;;;;;;;;5003617;28;20207;-57
2022/01/28 02:30:26;;;;;;;21.63;8.88;;;;;;;;;;4987458;28;20511;-57
2022/01/28 02:32:57;;;;;;;8.18;4.85;;;;;;;;;;4981319;28;20936;-56
2022/01/28 02:35:22;;;;;;;8.23;4.72;;;;;;;;;;5004634;28;20249;-57
2022/01/28 02:37:47;;;;;;;28.00;12.60;;;;;;;;;;4997894;28;20645;-57
2022/01/28 02:40:12;;;;;;;8.00;4.60;;;;;;;;;;5007211;28;20277;-57
2022/01/28 02:45:35;;;;;;;6.88;4.78;;;;;;;;;;5004315;28;20195;-57
2022/01/28 02:48:04;;;;;;;4.13;3.72;;;;;;;;;;4999017;28;20187;-57
2022/01/28 02:50:38;;;;;;;8.10;4.70;;;;;;;;;;4997513;28;21268;-57
2022/01/28 02:53:07;;;;;;;4.35;3.40;;;;;;;;;;5000146;28;20195;-57
2022/01/28 02:55:37;;;;;;;3.38;3.10;;;;;;;;;;5001548;28;20218;-57
2022/01/28 02:58:16;;;;;;;4.50;3.67;;;;;;;;;;4996680;28;20183;-56
2022/01/28 03:00:41;;;;;;;3.33;2.72;;;;;;;;;;4999036;28;20185;-57
2022/01/28 03:03:07;;;;;;;2.55;2.33;;;;;;;;;;5002855;28;20620;-56
2022/01/28 03:05:34;;;;;;;2.50;2.30;;;;;;;;;;4997550;28;21002;-56
2022/01/28 03:08:02;;;;;;;2.97;2.00;;;;;;;;;;5000831;28;20308;-56
2022/01/28 03:10:41;;;;;;;2.47;2.28;;;;;;;;;;5001098;28;20325;-57
2022/01/28 03:15:33;;;;;;;2.45;2.25;;;;;;;;;;5000720;28;20193;-57
2022/01/28 03:18:12;;;;;;;2.67;2.47;;;;;;;;;;5001233;28;20191;-57
2022/01/28 03:20:45;;;;;;;3.13;2.90;;;;;;;;;;5000180;28;20183;-56
2022/01/28 03:23:11;;;;;;;3.85;3.28;;;;;;;;;;5000762;28;20187;-57
2022/01/28 03:25:39;;;;;;;3.50;3.20;;;;;;;;;;5000168;28;20190;-57
2022/01/28 03:28:04;;;;;;;2.55;2.35;;;;;;;;;;5004145;28;20210;-57
2022/01/28 03:30:29;;;;;;;2.55;2.35;;;;;;;;;;4997452;28;20183;-57
2022/01/28 03:32:55;;;;;;;2.60;2.40;;;;;;;;;;5002390;28;20233;-57
2022/01/28 03:35:20;;;;;;;3.10;2.70;;;;;;;;;;4999219;28;20183;-56
2022/01/28 03:37:46;;;;;;;3.15;2.95;;;;;;;;;;5000812;28;20814;-57
2022/01/28 03:40:11;;;;;;;4.40;4.00;;;;;;;;;;5000739;28;20261;-57
2022/01/28 03:42:37;;;;;;;2.42;2.25;;;;;;;;;;5000489;28;20188;-57
2022/01/28 03:45:04;;;;;;;2.50;2.30;;;;;;;;;;4999345;28;20198;-57
2022/01/28 03:47:29;;;;;;;2.28;2.08;;;;;;;;;;4995229;28;20191;-57
2022/01/28 03:49:54;;;;;;;2.42;2.22;;;;;;;;;;5001690;28;20734;-57
2022/01/28 03:52:19;;;;;;;1.80;1.70;;;;;;;;;;5003349;28;20187;-57
2022/01/28 03:54:45;;;;;;;3.72;3.03;;;;;;;;;;4984326;28;20210;-57
2022/01/28 03:57:10;;;;;;;2.80;2.63;;;;;;;;;;4979493;28;20180;-58
2022/01/28 03:59:35;;;;;;;2.80;2.60;;;;;;;;;;4984240;28;20194;-58
2022/01/28 04:02:01;;;;;;;2.70;2.50;;;;;;;;;;4995885;28;20191;-57
2022/01/28 04:12:38;;;;;;;4.97;3.35;;;;;;;;;;4995666;28;20183;-57
2022/01/28 04:17:29;;;;;;;9.32;4.63;;;;;;;;;;4979051;28;20883;-57
2022/01/28 04:19:54;;;;;;;11.35;4.50;;;;;;;;;;4980836;28;20183;-57
2022/01/28 04:22:20;;;;;;;3.95;2.90;;;;;;;;;;4993464;28;20252;-57
2022/01/28 04:24:46;;;;;;;4.93;3.13;;;;;;;;;;4997356;28;20180;-57
2022/01/28 04:27:11;;;;;;;3.30;3.00;;;;;;;;;;4998610;28;20176;-57
2022/01/28 04:29:36;;;;;;;4.95;3.72;;;;;;;;;;4999984;28;20206;-57
2022/01/28 04:32:02;;;;;;;3.67;3.35;;;;;;;;;;5006907;28;20270;-58
2022/01/28 04:34:27;;;;;;;4.85;3.75;;;;;;;;;;5003020;28;20179;-57
2022/01/28 04:40:08;;;;;;;3.45;3.15;;;;;;;;;;4998256;28;20981;-57
2022/01/28 04:42:18;;;;;;;3.03;2.60;;;;;;;;;;5003521;28;20195;-58
2022/01/28 04:45:06;;;;;;;2.60;2.42;;;;;;;;;;4997794;28;20166;-57
2022/01/28 04:58:43;;;;;;;3.10;2.70;;;;;;;;;;4998030;28;20198;-57
2022/01/28 05:16:41;;;;;;;2.35;2.15;;;;;;;;;;4995710;28;20261;-56
2022/01/28 05:27:06;;;;;;;2.10;2.00;;;;;;;;;;4992509;28;20657;-56
2022/01/28 05:29:31;;;;;;;2.25;2.03;;;;;;;;;;4995255;28;20195;-56
2022/01/28 05:31:57;;;;;;;3.13;2.75;;;;;;;;;;4997950;28;20179;-56
2022/01/28 05:34:25;;;;;;;3.38;2.00;;;;;;;;;;5002177;28;20270;-57
2022/01/28 05:36:51;;;;;;;1.95;1.85;;;;;;;;;;5000958;28;20237;-56
2022/01/28 05:39:16;;;;;;;2.30;2.10;;;;;;;;;;4987464;28;20195;-57
2022/01/28 05:41:42;;;;;;;3.45;3.15;;;;;;;;;;4977728;28;20259;-56
2022/01/28 05:44:07;;;;;;;5.70;3.22;;;;;;;;;;4998744;28;20611;-57
2022/01/28 05:46:32;;;;;;;3.35;2.95;;;;;;;;;;4996613;28;20179;-57
2022/01/28 05:48:58;;;;;;;3.20;2.50;;;;;;;;;;4991279;28;20207;-57
2022/01/28 05:51:23;;;;;;;4.28;3.70;;;;;;;;;;5002227;28;20202;-56
2022/01/28 05:53:49;;;;;;;3.53;2.83;;;;;;;;;;4999365;28;20199;-57
2022/01/28 05:56:14;;;;;;;2.38;2.28;;;;;;;;;;4991835;28;20214;-56
2022/01/28 05:58:39;;;;;;;3.33;2.53;;;;;;;;;;5002964;28;20190;-56
2022/01/28 06:01:04;;;;;;;2.20;2.00;;;;;;;;;;4978487;28;20662;-56
2022/01/28 06:03:30;;;;;;;2.55;2.40;;;;;;;;;;4977963;28;20322;-57
2022/01/28 06:05:55;;;;;;;2.80;2.60;;;;;;;;;;4985551;28;20195;-57
2022/01/28 06:08:21;;;;;;;3.25;2.53;;;;;;;;;;4999002;28;20204;-57
2022/01/28 06:10:46;;;;;;;33.90;19.27;;;;;;;;;;4992493;28;20716;-56
2022/01/28 06:13:11;;;;;;;9.60;6.00;;;;;;;;;;4999190;28;20246;-56
2022/01/28 06:15:46;;;;;;;6.13;4.72;;;;;;;;;;4994447;28;20264;-56
2022/01/28 06:18:11;;;;;;;4.72;4.22;;;;;;;;;;4998732;28;20232;-58
2022/01/28 06:20:37;;;;;;;5.00;3.95;;;;;;;;;;4992903;28;20841;-57
2022/01/28 06:23:03;;;;;;;9.02;4.70;;;;;;;;;;4976492;28;20180;-57
2022/01/28 06:25:28;;;;;;;2.67;2.30;;;;;;;;;;4978671;28;20274;-57
2022/01/28 06:27:54;;;;;;;2.90;2.60;;;;;;;;;;4989312;28;20175;-57
2022/01/28 06:30:20;;;;;;;2.40;2.20;;;;;;;;;;4995367;28;20188;-57
2022/01/28 06:32:47;;;;;;;2.38;2.22;;;;;;;;;;4996433;28;20187;-57
2022/01/28 06:35:12;;;;;;;3.22;2.92;;;;;;;;;;4991375;28;20184;-57
2022/01/28 06:37:38;;;;;;;4.45;3.30;;;;;;;;;;4993197;28;20185;-57
2022/01/28 06:40:07;;;;;;;3.28;2.97;;;;;;;;;;4996394;28;20207;-57
2022/01/28 06:42:33;;;;;;;4.22;2.97;;;;;;;;;;4987252;28;20664;-57
2022/01/28 06:44:58;;;;;;;4.72;2.15;;;;;;;;;;4980802;28;20180;-57
2022/01/28 06:47:23;;;;;;;2.08;1.98;;;;;;;;;;4982922;28;20238;-57
2022/01/28 06:49:49;;;;;;;5.50;4.07;;;;;;;;;;4998733;28;20194;-57
2022/01/28 06:52:14;;;;;;;2.80;2.60;;;;;;;;;;5001010;28;20178;-57
2022/01/28 06:54:39;;;;;;;2.22;2.03;;;;;;;;;;5006501;28;20199;-57
2022/01/28 06:57:05;;;;;;;2.22;2.03;;;;;;;;;;5005567;28;20674;-57
2022/01/28 06:59:30;;;;;;;2.33;2.22;;;;;;;;;;4997645;28;20193;-57
2022/01/28 07:01:55;;;;;;;2.20;2.10;;;;;;;;;;5005202;28;20189;-57
2022/01/28 07:04:21;;;;;;;3.13;2.58;;;;;;;;;;4982907;28;20288;-58
2022/01/28 07:06:46;;;;;;;2.85;2.60;;;;;;;;;;4981098;28;20245;-57
2022/01/28 07:09:12;;;;;;;2.78;2.58;;;;;;;;;;5004785;28;20207;-57
2022/01/28 07:11:37;;;;;;;3.10;2.80;;;;;;;;;;4999575;28;20311;-56
2022/01/28 07:14:02;;;;;;;7.20;4.85;;;;;;;;;;5000794;28;20642;-58
2022/01/28 07:16:29;;;;;;;3.05;2.65;;;;;;;;;;4995169;28;20278;-57
2022/01/28 07:18:55;;;;;;;4.03;3.65;;;;;;;;;;4993466;28;20191;-56
2022/01/28 07:21:20;;;;;;;4.70;4.10;;;;;;;;;;5002211;28;20629;-57
2022/01/28 07:23:45;;;;;;;8.43;5.78;;;;;;;;;;4996926;28;20190;-57
2022/01/28 07:26:11;;;;;;;6.88;4.15;;;;;;;;;;4998407;28;20182;-57
2022/01/28 07:28:38;;;;;;;3.88;3.50;;;;;;;;;;5000866;28;20899;-57
2022/01/28 07:31:04;;;;;;;5.60;4.72;;;;;;;;;;5002577;28;20270;-57
2022/01/28 07:33:29;;;;;;;4.65;3.35;;;;;;;;;;5002889;28;20261;-57
2022/01/28 07:35:54;;;;;;;3.72;3.42;;;;;;;;;;4997989;28;20184;-57
2022/01/28 07:38:20;;;;;;;3.58;2.90;;;;;;;;;;5005476;28;20262;-57
2022/01/28 07:40:45;;;;;;;5.50;4.10;;;;;;;;;;5004743;28;20202;-57
2022/01/28 07:43:10;;;;;;;5.10;4.40;;;;;;;;;;5002875;28;20187;-57
2022/01/28 07:45:36;;;;;;;7.60;4.95;;;;;;;;;;4986795;28;20187;-57
2022/01/28 07:48:01;;;;;;;8.05;4.75;;;;;;;;;;4998581;28;20218;-57
2022/01/28 07:50:27;;;;;;;12.25;5.53;;;;;;;;;;5001041;28;20285;-57
2022/01/28 07:52:52;;;;;;;5.47;3.85;;;;;;;;;;5003830;28;22506;-58
2022/01/28 07:55:17;;;;;;;8.95;4.72;;;;;;;;;;5001744;28;20184;-58
2022/01/28 07:57:43;;;;;;;4.55;3.80;;;;;;;;;;4996311;28;20696;-57
2022/01/28 08:00:09;;;;;;;4.97;3.60;;;;;;;;;;4997135;28;20307;-57
2022/01/28 08:02:35;;;;;;;3.20;2.97;;;;;;;;;;5002852;28;20183;-57
2022/01/28 08:05:00;;;;;;;3.30;3.10;;;;;;;;;;4997192;28;20628;-57
2022/01/28 08:07:26;;;;;;;5.00;2.90;;;;;;;;;;4997816;28;20238;-58
2022/01/28 08:09:51;;;;;;;4.07;2.80;;;;;;;;;;4998986;28;20265;-58
2022/01/28 08:12:16;;;;;;;2.72;2.40;;;;;;;;;;5002644;28;20221;-58
2022/01/28 08:14:42;;;;;;;5.90;3.08;;;;;;;;;;5002588;28;20180;-58
2022/01/28 08:17:07;;;;;;;3.45;3.15;;;;;;;;;;5004962;28;20261;-57
2022/01/28 08:19:33;;;;;;;3.05;2.85;;;;;;;;;;5007236;28;20269;-58
2022/01/28 08:21:58;;;;;;;5.40;3.58;;;;;;;;;;4995528;28;20215;-57
2022/01/28 08:24:23;;;;;;;3.70;3.40;;;;;;;;;;4996948;28;20188;-58
2022/01/28 08:26:49;;;;;;;5.13;4.03;;;;;;;;;;4988327;28;20219;-58
2022/01/28 08:29:14;;;;;;;9.45;5.72;;;;;;;;;;4977804;28;20204;-57
2022/01/28 08:31:39;;;;;;;3.40;2.97;;;;;;;;;;4998656;28;20187;-58
2022/01/28 08:34:05;;;;;;;3.20;2.90;;;;;;;;;;5004067;28;20175;-58
2022/01/28 08:36:30;;;;;;;7.03;3.20;;;;;;;;;;4992825;28;20174;-58
2022/01/28 08:38:56;;;;;;;17.15;7.13;;;;;;;;;;4996161;28;20187;-58
2022/01/28 08:41:24;;;;;;;22.08;10.75;;;;;;;;;;5002923;28;20190;-57
2022/01/28 08:43:49;;;;;;;24.27;11.07;;;;;;;;;;4992174;28;20184;-58
2022/01/28 08:46:15;;;;;;;21.25;10.40;;;;;;;;;;4996538;28;20180;-57
2022/01/28 08:48:40;;;;;;;20.05;9.50;;;;;;;;;;4993576;28;20242;-57
2022/01/28 08:51:08;;;;;;;8.13;5.85;;;;;;;;;;4997833;28;20234;-58
2022/01/28 08:53:33;;;;;;;15.25;6.53;;;;;;;;;;4999732;28;20230;-57
2022/01/28 08:55:59;;;;;;;13.43;6.50;;;;;;;;;;5002211;28;21209;-58
2022/01/28 08:58:24;;;;;;;7.00;5.75;;;;;;;;;;4995497;28;20310;-57
2022/01/28 09:00:51;;;;;;;13.38;6.60;;;;;;;;;;4995127;28;20303;-57
2022/01/28 09:03:16;;;;;;;7.40;4.72;;;;;;;;;;5006529;28;20197;-57
2022/01/28 09:05:42;;;;;;;4.60;3.72;;;;;;;;;;4995663;28;20184;-58
2022/01/28 09:08:09;;;;;;;16.63;8.00;;;;;;;;;;4995334;28;20565;-58
2022/01/28 09:10:37;;;;;;;11.38;6.28;;;;;;;;;;5012558;28;20277;-57
2022/01/28 09:15:34;;;;;;;9.68;6.22;;;;;;;;;;5002073;28;20276;-58
2022/01/28 09:18:00;;;;;;;11.13;6.35;;;;;;;;;;4996023;28;20175;-57
2022/01/28 09:20:25;;;;;;;35.97;19.20;;;;;;;;;;4990576;28;20649;-57
2022/01/28 09:22:50;;;;;;;22.40;12.10;;;;;;;;;;4997458;28;20175;-58
2022/01/28 09:25:16;;;;;;;19.98;10.65;;;;;;;;;;4997718;28;20183;-58
2022/01/28 09:27:41;;;;;;;25.02;11.57;;;;;;;;;;4994680;28;20184;-57
2022/01/28 09:30:07;;;;;;;50.92;19.48;;;;;;;;;;4994968;28;20207;-58
2022/01/28 09:32:32;;;;;;;48.58;19.88;;;;;;;;;;4996722;28;20179;-57
2022/01/28 09:34:57;;;;;;;32.83;14.18;;;;;;;;;;4998275;28;20182;-57
2022/01/28 09:37:23;;;;;;;43.22;17.48;;;;;;;;;;4998860;28;20629;-58
2022/01/28 09:39:49;;;;;;;40.67;16.58;;;;;;;;;;4996137;28;20210;-57
2022/01/28 09:42:16;;;;;;;34.28;16.45;;;;;;;;;;4992889;28;20646;-58
2022/01/28 09:44:42;;;;;;;27.85;14.77;;;;;;;;;;4998162;28;20199;-58
2022/01/28 09:47:10;;;;;;;42.20;16.45;;;;;;;;;;5004454;28;20198;-57
2022/01/28 09:49:37;;;;;;;38.92;13.93;;;;;;;;;;4993269;28;20249;-58
2022/01/28 09:52:03;;;;;;;32.20;13.50;;;;;;;;;;4983287;28;20711;-58
2022/01/28 09:54:28;;;;;;;25.33;14.07;;;;;;;;;;4977190;28;20274;-57
2022/01/28 09:56:53;;;;;;;84.60;30.60;;;;;;;;;;4995304;28;20796;-57
2022/01/28 09:59:19;;;;;;;51.03;20.65;;;;;;;;;;4993765;28;20234;-57
2022/01/28 10:01:48;;;;;;;35.22;17.27;;;;;;;;;;4999374;28;20837;-58
2022/01/28 10:04:15;;;;;;;45.58;18.55;;;;;;;;;;4999233;28;20573;-57
2022/01/28 10:06:40;;;;;;;29.80;16.52;;;;;;;;;;4996523;28;20266;-58
2022/01/28 10:09:09;;;;;;;30.77;15.55;;;;;;;;;;4996168;28;20918;-58
2022/01/28 10:11:36;;;;;;;44.15;19.08;;;;;;;;;;4995965;28;20269;-58
2022/01/28 10:14:07;;;;;;;40.97;15.73;;;;;;;;;;4977466;28;21051;-58
2022/01/28 10:16:32;;;;;;;16.80;8.35;;;;;;;;;;5001878;28;20175;-58
2022/01/28 10:18:58;;;;;;;7.40;3.85;;;;;;;;;;4999474;28;20260;-57
2022/01/28 10:21:27;;;;;;;9.07;5.63;;;;;;;;;;5001235;28;20186;-57
2022/01/28 10:24:01;;;;;;;2.33;2.20;;;;;;;;;;5002775;28;20222;-58
2022/01/28 10:26:30;;;;;;;1.35;1.35;;;;;;;;;;5006646;28;20221;-57
2022/01/28 10:28:56;;;;;;;2.97;2.72;;;;;;;;;;5001692;28;20243;-56
2022/01/28 10:31:21;;;;;;;2.38;1.48;;;;;;;;;;4998111;28;20203;-58
2022/01/28 10:33:47;;;;;;;0.80;0.80;;;;;;;;;;4993441;28;20607;-57
2022/01/28 10:36:22;;;;;;;2.47;1.00;;;;;;;;;;4980780;28;20213;-58
2022/01/28 10:38:47;;;;;;;0.60;0.60;;;;;;;;;;5002309;28;20223;-58
2022/01/28 10:41:16;;;;;;;0.85;0.85;;;;;;;;;;5006959;28;20183;-59
2022/01/28 10:43:50;;;;;;;0.60;0.60;;;;;;;;;;4998465;28;20179;-57
2022/01/28 10:46:23;;;;;;;1.05;1.05;;;;;;;;;;4996582;28;20176;-57
2022/01/28 10:48:58;;;;;;;3.40;1.20;;;;;;;;;;5000945;28;20628;-57
2022/01/28 10:51:38;;;;;;;0.88;0.88;;;;;;;;;;4997517;28;20717;-57
2022/01/28 10:54:07;;;;;;;2.03;1.80;;;;;;;;;;5004495;28;20245;-59
2022/01/28 10:57:04;;;;;;;2.20;2.00;;;;;;;;;;4999208;28;20712;-57
2022/01/28 10:59:31;;;;;;;1.20;1.20;;;;;;;;;;4988953;28;20205;-58
2022/01/28 11:01:56;;;;;;;0.75;0.75;;;;;;;;;;5008085;28;20183;-56
2022/01/28 11:04:22;;;;;;;1.80;1.13;;;;;;;;;;5003330;28;20672;-57
2022/01/28 11:06:48;;;;;;;1.40;1.30;;;;;;;;;;5005929;28;20261;-56
2022/01/28 11:09:14;;;;;;;1.63;1.45;;;;;;;;;;5000775;28;20295;-56
2022/01/28 11:11:40;;;;;;;1.10;1.10;;;;;;;;;;5003740;28;20263;-57
2022/01/28 11:14:05;;;;;;;1.58;1.48;;;;;;;;;;5000955;28;20663;-57
2022/01/28 11:16:30;;;;;;;1.63;1.52;;;;;;;;;;4986283;28;20179;-58
2022/01/28 11:18:56;;;;;;;1.73;1.63;;;;;;;;;;4980523;28;20176;-58
2022/01/28 11:21:30;;;;;;;1.75;1.65;;;;;;;;;;5002616;28;20668;-57
2022/01/28 11:24:10;;;;;;;3.40;1.63;;;;;;;;;;5000622;28;20234;-57
2022/01/28 11:26:45;;;;;;;2.72;2.22;;;;;;;;;;4999266;28;20277;-58
2022/01/28 11:29:12;;;;;;;1.75;1.63;;;;;;;;;;5002460;28;20194;-57
2022/01/28 11:31:50;;;;;;;2.17;1.90;;;;;;;;;;5000741;28;20269;-58
2022/01/28 11:34:15;;;;;;;1.20;1.10;;;;;;;;;;5028818;28;20196;-56
2022/01/28 11:36:41;;;;;;;2.25;1.40;;;;;;;;;;4999253;28;20948;-56
2022/01/28 11:39:46;;;;;;;1.45;1.10;;;;;;;;;;4998834;28;20194;-56
2022/01/28 11:42:13;;;;;;;2.40;2.05;;;;;;;;;;4979829;28;20653;-56
2022/01/28 11:44:41;;;;;;;1.15;1.15;;;;;;;;;;4997032;28;20672;-57
2022/01/28 11:47:08;;;;;;;1.23;1.13;;;;;;;;;;4993236;28;20669;-57
2022/01/28 11:49:50;;;;;;;1.70;1.60;;;;;;;;;;4997740;28;20215;-56
2022/01/28 11:52:22;;;;;;;0.95;0.95;;;;;;;;;;5000533;28;20195;-57
2022/01/28 11:54:48;;;;;;;1.65;1.30;;;;;;;;;;5001202;28;20210;-58
2022/01/28 11:57:14;;;;;;;3.05;2.25;;;;;;;;;;4998304;28;20175;-58
2022/01/28 11:59:39;;;;;;;3.55;1.70;;;;;;;;;;4997619;28;20856;-57
2022/01/28 12:02:05;;;;;;;1.63;1.27;;;;;;;;;;4999785;28;20237;-57
2022/01/28 12:04:31;;;;;;;1.37;1.27;;;;;;;;;;5014336;28;20282;-57
2022/01/28 12:07:04;;;;;;;1.65;1.55;;;;;;;;;;4997437;28;21280;-57
2022/01/28 12:09:30;;;;;;;1.20;1.10;;;;;;;;;;5013313;28;20684;-57
2022/01/28 12:11:57;;;;;;;1.55;1.45;;;;;;;;;;5006197;28;20210;-57
2022/01/28 12:14:41;;;;;;;1.15;1.10;;;;;;;;;;5003314;28;20187;-58
2022/01/28 12:17:25;;;;;;;2.35;1.50;;;;;;;;;;5003301;28;20178;-57
2022/01/28 12:20:08;;;;;;;3.67;2.08;;;;;;;;;;4998969;28;20187;-57
2022/01/28 12:22:33;;;;;;;2.05;1.90;;;;;;;;;;4998960;28;20167;-58
2022/01/28 12:24:59;;;;;;;2.22;1.52;;;;;;;;;;4999843;28;20591;-57
2022/01/28 12:27:33;;;;;;;2.92;2.45;;;;;;;;;;4997071;28;20176;-58
2022/01/28 12:30:00;;;;;;;2.70;2.28;;;;;;;;;;5000551;28;20202;-58
2022/01/28 12:32:25;;;;;;;3.22;2.30;;;;;;;;;;5000674;28;20557;-57
2022/01/28 12:34:51;;;;;;;5.07;2.53;;;;;;;;;;4995350;28;20302;-59
2022/01/28 12:37:21;;;;;;;5.10;2.55;;;;;;;;;;4990822;28;20271;-58
2022/01/28 12:39:55;;;;;;;4.57;2.60;;;;;;;;;;4989693;28;20180;-58
2022/01/28 12:42:24;;;;;;;2.58;2.38;;;;;;;;;;4997474;28;20233;-58
2022/01/28 12:44:56;;;;;;;3.78;2.47;;;;;;;;;;4999655;28;20171;-57
2022/01/28 12:47:22;;;;;;;17.45;11.88;;;;;;;;;;5001700;28;20209;-57
2022/01/28 12:49:53;;;;;;;5.90;4.60;;;;;;;;;;5000696;28;20622;-58
2022/01/28 12:52:18;;;;;;;2.80;2.50;;;;;;;;;;5001019;28;20558;-57
2022/01/28 12:54:44;;;;;;;5.97;3.30;;;;;;;;;;4993754;28;20203;-57
2022/01/28 12:57:11;;;;;;;4.07;2.63;;;;;;;;;;5002329;28;20199;-57
2022/01/28 12:59:37;;;;;;;9.55;5.57;;;;;;;;;;4996044;28;20185;-58
2022/01/28 13:02:02;;;;;;;7.45;3.38;;;;;;;;;;4997900;28;20182;-58
2022/01/28 13:04:50;;;;;;;5.57;3.67;;;;;;;;;;4998296;28;20189;-59
2022/01/28 13:10:02;;;;;;;13.02;8.00;;;;;;;;;;4999708;28;20390;-58
2022/01/28 13:12:28;;;;;;;2.28;2.08;;;;;;;;;;4999714;28;20277;-58
2022/01/28 13:14:53;;;;;;;2.45;2.22;;;;;;;;;;4998330;28;20180;-57
2022/01/28 13:17:20;;;;;;;3.72;3.00;;;;;;;;;;5000017;28;20190;-56
2022/01/28 13:20:01;;;;;;;6.38;4.43;;;;;;;;;;5001370;28;20567;-57
2022/01/28 13:22:28;;;;;;;9.00;6.25;;;;;;;;;;5000082;28;20185;-57
2022/01/28 13:24:54;;;;;;;2.17;1.92;;;;;;;;;;4997801;28;20213;-57
2022/01/28 13:27:21;;;;;;;23.98;14.75;;;;;;;;;;4999465;28;20262;-58
2022/01/28 13:29:49;;;;;;;2.42;2.00;;;;;;;;;;4997952;28;20206;-58
2022/01/28 13:32:16;;;;;;;3.50;3.15;;;;;;;;;;4998242;28;20191;-58
2022/01/28 13:34:52;;;;;;;2.55;2.17;;;;;;;;;;4999745;28;20244;-58
2022/01/28 13:37:38;;;;;;;2.17;1.98;;;;;;;;;;5002082;28;20955;-58
2022/01/28 13:40:40;;;;;;;2.85;1.90;;;;;;;;;;4995942;28;20575;-58
2022/01/28 13:43:10;;;;;;;4.10;2.15;;;;;;;;;;4997210;28;20190;-58
2022/01/28 13:45:41;;;;;;;2.67;2.47;;;;;;;;;;4997166;28;20197;-58
2022/01/28 13:48:20;;;;;;;3.35;3.13;;;;;;;;;;4998775;28;20179;-58
2022/01/28 13:50:50;;;;;;;2.53;1.92;;;;;;;;;;5005138;28;20203;-58
2022/01/28 13:55:59;;;;;;;2.10;1.90;;;;;;;;;;5001553;28;20287;-58
2022/01/28 13:58:25;;;;;;;3.60;3.03;;;;;;;;;;4991381;28;20186;-57
2022/01/28 14:00:50;;;;;;;6.07;4.03;;;;;;;;;;5000892;28;20191;-58
2022/01/28 14:03:20;;;;;;;2.10;1.90;;;;;;;;;;5003579;28;20584;-58
2022/01/28 14:05:49;;;;;;;2.40;2.17;;;;;;;;;;4995121;28;20202;-58
2022/01/28 14:08:15;;;;;;;5.68;4.43;;;;;;;;;;4997474;28;20183;-58
2022/01/28 14:10:40;;;;;;;5.97;3.72;;;;;;;;;;5001793;28;20220;-58
2022/01/28 14:13:19;;;;;;;1.88;1.77;;;;;;;;;;5002878;28;20207;-57
2022/01/28 14:15:53;;;;;;;3.25;2.28;;;;;;;;;;4992926;28;20321;-58
2022/01/28 14:18:18;;;;;;;1.80;1.70;;;;;;;;;;4993831;28;20252;-58
2022/01/28 14:20:43;;;;;;;1.65;1.33;;;;;;;;;;5002159;28;20333;-58
2022/01/28 14:23:09;;;;;;;1.33;1.25;;;;;;;;;;5000113;28;20176;-58
2022/01/28 14:25:34;;;;;;;3.38;3.08;;;;;;;;;;4985044;28;20179;-58
2022/01/28 14:30:43;;;;;;;2.15;1.85;;;;;;;;;;5000162;28;20229;-57
2022/01/28 14:33:10;;;;;;;2.53;1.92;;;;;;;;;;5001741;28;20633;-57
2022/01/28 14:35:37;;;;;;;1.08;1.08;;;;;;;;;;4995399;28;20222;-58
2022/01/28 14:38:05;;;;;;;6.97;5.70;;;;;;;;;;5000490;28;20262;-59
2022/01/28 14:40:30;;;;;;;4.10;3.17;;;;;;;;;;5002032;28;20184;-57
2022/01/28 14:42:56;;;;;;;7.55;5.93;;;;;;;;;;5002048;28;20180;-57
2022/01/28 14:45:21;;;;;;;19.77;9.73;;;;;;;;;;4995090;28;20187;-57
2022/01/28 14:47:46;;;;;;;14.88;8.80;;;;;;;;;;4995256;28;20245;-58
2022/01/28 14:50:12;;;;;;;21.05;9.88;;;;;;;;;;4996935;28;20719;-58
2022/01/28 14:52:37;;;;;;;2.95;2.65;;;;;;;;;;5001665;28;20229;-58
2022/01/28 14:55:03;;;;;;;2.72;2.53;;;;;;;;;;4993550;28;20191;-57
2022/01/28 14:57:29;;;;;;;2.13;1.92;;;;;;;;;;5001386;28;20643;-58
2022/01/28 14:59:54;;;;;;;2.65;2.45;;;;;;;;;;4994790;28;20183;-58
2022/01/28 15:02:24;;;;;;;3.13;2.90;;;;;;;;;;5004259;28;20186;-58
2022/01/28 15:04:54;;;;;;;8.35;3.53;;;;;;;;;;5025879;28;20579;-58
2022/01/28 15:07:20;;;;;;;3.00;2.72;;;;;;;;;;4996291;28;20271;-58
2022/01/28 15:09:50;;;;;;;3.17;2.15;;;;;;;;;;4998685;28;20215;-58
2022/01/28 15:12:15;;;;;;;1.90;1.80;;;;;;;;;;5001291;28;20183;-57
2022/01/28 15:14:41;;;;;;;4.47;3.40;;;;;;;;;;5006565;28;20188;-57
2022/01/28 15:17:06;;;;;;;3.28;2.97;;;;;;;;;;5001813;28;20176;-57
2022/01/28 15:19:31;;;;;;;3.42;3.00;;;;;;;;;;4994177;28;20601;-57
2022/01/28 15:21:56;;;;;;;3.63;3.33;;;;;;;;;;4993936;28;20222;-57
2022/01/28 15:24:23;;;;;;;4.35;3.67;;;;;;;;;;4998827;28;20215;-57
2022/01/28 15:26:49;;;;;;;4.95;3.15;;;;;;;;;;5001538;28;20187;-57
2022/01/28 15:37:36;;;;;;;3.50;3.20;;;;;;;;;;5007303;28;20248;-57
2022/01/28 15:40:02;;;;;;;6.28;3.67;;;;;;;;;;5003848;28;20649;-58
2022/01/28 15:42:28;;;;;;;6.82;5.05;;;;;;;;;;5005298;28;20198;-57
2022/01/28 15:44:53;;;;;;;6.07;4.65;;;;;;;;;;4989790;28;20183;-57
2022/01/28 15:47:18;;;;;;;5.28;4.78;;;;;;;;;;4989824;28;20266;-57
2022/01/28 15:49:44;;;;;;;3.72;3.00;;;;;;;;;;4998652;28;20770;-57
2022/01/28 15:52:09;;;;;;;6.32;4.68;;;;;;;;;;4998789;28;20187;-57
2022/01/28 15:54:35;;;;;;;8.40;6.10;;;;;;;;;;4999650;28;20618;-57
2022/01/28 15:57:00;;;;;;;6.85;4.35;;;;;;;;;;4994988;28;20273;-57
2022/01/28 15:59:26;;;;;;;5.93;4.80;;;;;;;;;;5003812;28;20262;-57
2022/01/28 16:01:51;;;;;;;12.15;8.00;;;;;;;;;;4998228;28;20596;-57
2022/01/28 16:04:17;;;;;;;20.60;13.10;;;;;;;;;;4999398;28;20179;-58
2022/01/28 16:06:42;;;;;;;22.05;12.90;;;;;;;;;;5008763;28;20231;-57
2022/01/28 16:09:08;;;;;;;12.38;8.35;;;;;;;;;;4991343;28;20215;-57
2022/01/28 16:11:44;;;;;;;8.85;7.05;;;;;;;;;;4997856;28;20728;-57
2022/01/28 16:19:26;;;;;;;12.70;7.85;;;;;;;;;;5007032;28;20217;-57
2022/01/28 16:21:53;;;;;;;12.20;7.40;;;;;;;;;;4999033;28;20220;-57
2022/01/28 16:24:19;;;;;;;9.80;6.32;;;;;;;;;;4999009;28;20629;-58
2022/01/28 16:26:44;;;;;;;11.43;7.85;;;;;;;;;;5005490;28;20219;-58
2022/01/28 16:29:10;;;;;;;8.63;6.15;;;;;;;;;;4997994;28;20595;-57
2022/01/28 16:31:35;;;;;;;12.32;6.80;;;;;;;;;;5001608;28;20785;-57
2022/01/28 16:34:00;;;;;;;10.18;7.18;;;;;;;;;;4998035;28;20171;-57
2022/01/28 16:36:27;;;;;;;15.60;9.45;;;;;;;;;;4999794;28;20193;-57